Time;durP1;ratioP1;P1;durP2;ratioP2;P2;SDS_P1;SDS_P2;PMS_P1;PMS_P2;Temp;Humidity;BMP_temperature;BMP_pressure;BME280_temperature;BME280_humidity;BME280_pressure;Samples;Min_cycle;Max_cycle;Signal;HPM_P1;HPM_P2
2021/10/10 00:00:15;;;;;;;;;72.33;63.33;;;;;;;;5018121;28;45407;-71
2021/10/10 00:02:41;;;;;;;;;61.25;48.00;;;;;;;;5017531;28;45990;-70
2021/10/10 00:05:07;;;;;;;;;60.00;45.50;;;;;;;;5017590;28;45384;-71
2021/10/10 00:07:32;;;;;;;;;56.00;43.50;;;;;;;;5016761;28;45418;-71
2021/10/10 00:09:57;;;;;;;;;58.50;45.75;;;;;;;;5018273;28;45675;-70
2021/10/10 00:12:23;;;;;;;;;58.00;46.00;;;;;;;;5017546;28;45347;-72
2021/10/10 00:14:48;;;;;;;;;61.50;47.50;;;;;;;;5017571;28;45465;-71
2021/10/10 00:17:13;;;;;;;;;56.75;46.50;;;;;;;;5018041;28;45355;-70
2021/10/10 00:19:38;;;;;;;;;56.50;45.50;;;;;;;;5017056;28;45385;-71
2021/10/10 00:22:03;;;;;;;;;64.00;48.00;;;;;;;;5018042;28;47409;-71
2021/10/10 00:24:29;;;;;;;;;63.00;49.00;;;;;;;;5016386;28;45383;-70
2021/10/10 00:26:54;;;;;;;;;60.25;46.75;;;;;;;;5016179;28;45348;-71
2021/10/10 00:29:20;;;;;;;;;58.00;45.00;;;;;;;;5018075;28;45453;-71
2021/10/10 00:31:45;;;;;;;;;67.25;50.75;;;;;;;;5017360;28;47038;-71
2021/10/10 00:34:11;;;;;;;;;60.00;47.25;;;;;;;;5017552;28;45370;-70
2021/10/10 00:36:36;;;;;;;;;61.75;48.50;;;;;;;;5017866;28;45359;-71
2021/10/10 00:39:01;;;;;;;;;58.50;47.00;;;;;;;;5017798;28;45569;-70
2021/10/10 00:41:26;;;;;;;;;61.75;46.00;;;;;;;;5017331;28;45331;-70
2021/10/10 00:43:52;;;;;;;;;70.50;52.50;;;;;;;;5017356;28;45389;-70
2021/10/10 00:46:17;;;;;;;;;58.50;46.50;;;;;;;;5017611;28;45306;-70
2021/10/10 00:48:42;;;;;;;;;62.00;46.00;;;;;;;;5017429;28;45610;-72
2021/10/10 00:51:07;;;;;;;;;63.00;46.25;;;;;;;;5017438;28;45563;-70
2021/10/10 00:53:35;;;;;;;;;62.50;46.75;;;;;;;;5016990;28;45378;-69
2021/10/10 00:56:02;;;;;;;;;57.00;44.00;;;;;;;;5017032;28;45359;-69
2021/10/10 00:58:27;;;;;;;;;60.50;47.00;;;;;;;;5017125;28;45395;-69
2021/10/10 01:00:53;;;;;;;;;66.25;49.00;;;;;;;;5016886;28;45311;-69
2021/10/10 01:03:19;;;;;;;;;59.75;46.25;;;;;;;;5016867;28;45372;-70
2021/10/10 01:05:45;;;;;;;;;56.00;45.00;;;;;;;;5017209;28;45308;-70
2021/10/10 01:08:17;;;;;;;;;55.75;44.00;;;;;;;;5017179;28;45516;-72
2021/10/10 01:10:46;;;;;;;;;60.25;46.75;;;;;;;;5017050;28;46620;-69
2021/10/10 01:13:18;;;;;;;;;58.00;45.25;;;;;;;;5015557;28;45297;-70
2021/10/10 01:15:44;;;;;;;;;57.00;44.25;;;;;;;;5017036;28;45433;-70
2021/10/10 01:18:09;;;;;;;;;60.50;46.25;;;;;;;;5017314;28;45500;-70
2021/10/10 01:20:43;;;;;;;;;60.25;46.00;;;;;;;;5015315;28;47987;-69
2021/10/10 01:23:08;;;;;;;;;57.75;46.75;;;;;;;;5015335;28;45394;-69
2021/10/10 01:25:33;;;;;;;;;59.25;46.00;;;;;;;;5016623;28;45491;-70
2021/10/10 01:27:58;;;;;;;;;58.50;46.50;;;;;;;;5015382;28;45378;-69
2021/10/10 01:30:24;;;;;;;;;57.00;45.00;;;;;;;;5016312;28;45540;-70
2021/10/10 01:32:53;;;;;;;;;64.25;50.25;;;;;;;;5016147;28;45441;-70
2021/10/10 01:35:18;;;;;;;;;58.00;46.00;;;;;;;;5016488;28;45334;-70
2021/10/10 01:37:44;;;;;;;;;59.75;46.25;;;;;;;;5016746;28;45506;-70
2021/10/10 01:40:09;;;;;;;;;59.25;46.50;;;;;;;;5015981;28;46745;-71
2021/10/10 01:42:34;;;;;;;;;58.00;46.50;;;;;;;;5016221;28;45343;-69
2021/10/10 01:45:00;;;;;;;;;61.75;46.75;;;;;;;;5016547;28;45385;-69
2021/10/10 01:47:25;;;;;;;;;57.50;46.00;;;;;;;;5016671;28;45550;-69
2021/10/10 01:49:50;;;;;;;;;59.50;46.25;;;;;;;;5016287;28;45704;-70
2021/10/10 01:52:15;;;;;;;;;62.50;47.00;;;;;;;;5016147;28;45395;-70
2021/10/10 01:54:41;;;;;;;;;63.00;48.00;;;;;;;;5015589;28;45418;-70
2021/10/10 01:57:06;;;;;;;;;58.75;47.25;;;;;;;;5016943;28;45584;-71
2021/10/10 01:59:31;;;;;;;;;62.50;49.25;;;;;;;;5015795;28;47552;-70
2021/10/10 02:01:56;;;;;;;;;58.25;45.75;;;;;;;;5016915;28;45339;-69
2021/10/10 02:04:22;;;;;;;;;65.00;50.75;;;;;;;;5015787;28;45380;-70
2021/10/10 02:06:47;;;;;;;;;57.25;46.75;;;;;;;;5016389;28;45537;-69
2021/10/10 02:09:12;;;;;;;;;64.75;49.25;;;;;;;;5016080;28;46247;-69
2021/10/10 02:11:38;;;;;;;;;61.00;47.50;;;;;;;;5015418;28;45342;-71
2021/10/10 02:14:03;;;;;;;;;59.00;48.75;;;;;;;;5016852;28;45323;-70
2021/10/10 02:16:28;;;;;;;;;61.50;47.50;;;;;;;;5016780;28;45316;-71
2021/10/10 02:18:53;;;;;;;;;64.50;50.75;;;;;;;;5014314;28;47645;-70
2021/10/10 02:21:19;;;;;;;;;58.25;46.25;;;;;;;;4997771;28;45538;-71
2021/10/10 02:23:44;;;;;;;;;64.50;50.75;;;;;;;;5015813;28;45266;-70
2021/10/10 02:26:09;;;;;;;;;63.25;47.75;;;;;;;;5016230;28;45548;-70
2021/10/10 02:28:34;;;;;;;;;63.00;47.50;;;;;;;;5015337;28;45262;-70
2021/10/10 02:31:00;;;;;;;;;56.00;45.25;;;;;;;;5015594;28;45248;-70
2021/10/10 02:33:25;;;;;;;;;62.25;47.75;;;;;;;;5014361;28;45367;-70
2021/10/10 02:35:50;;;;;;;;;56.00;45.25;;;;;;;;5015959;28;45610;-71
2021/10/10 02:38:16;;;;;;;;;61.25;47.00;;;;;;;;5014010;28;46279;-71
2021/10/10 02:40:41;;;;;;;;;63.50;48.50;;;;;;;;5014082;28;45269;-70
2021/10/10 02:43:06;;;;;;;;;54.75;45.25;;;;;;;;5015382;28;45178;-70
2021/10/10 02:45:32;;;;;;;;;59.00;45.25;;;;;;;;5015615;28;45482;-70
2021/10/10 02:47:57;;;;;;;;;57.50;45.00;;;;;;;;5013725;28;48104;-70
2021/10/10 02:50:22;;;;;;;;;55.75;45.00;;;;;;;;5014180;28;45311;-69
2021/10/10 02:52:47;;;;;;;;;59.50;46.75;;;;;;;;5015407;28;45282;-70
2021/10/10 02:55:13;;;;;;;;;63.00;48.00;;;;;;;;5014526;28;45513;-71
2021/10/10 02:57:38;;;;;;;;;57.75;47.50;;;;;;;;5013723;28;46227;-71
2021/10/10 03:00:05;;;;;;;;;56.25;43.00;;;;;;;;5015213;28;45260;-70
2021/10/10 03:02:30;;;;;;;;;58.00;46.00;;;;;;;;5015342;28;45741;-70
2021/10/10 03:04:55;;;;;;;;;60.00;46.75;;;;;;;;5014313;28;45350;-71
2021/10/10 03:07:20;;;;;;;;;61.75;48.75;;;;;;;;5014919;28;45659;-70
2021/10/10 03:09:46;;;;;;;;;57.75;45.75;;;;;;;;5015141;28;45473;-70
2021/10/10 03:12:11;;;;;;;;;61.75;47.50;;;;;;;;5015274;28;45336;-71
2021/10/10 03:14:36;;;;;;;;;54.00;42.25;;;;;;;;5015202;28;45255;-70
2021/10/10 03:17:01;;;;;;;;;57.75;45.00;;;;;;;;5015038;28;45414;-70
2021/10/10 03:19:27;;;;;;;;;55.00;42.50;;;;;;;;5015060;28;45266;-69
2021/10/10 03:21:52;;;;;;;;;54.75;44.75;;;;;;;;5013846;28;45375;-70
2021/10/10 03:24:17;;;;;;;;;60.50;46.00;;;;;;;;5015354;28;45410;-71
2021/10/10 03:26:42;;;;;;;;;56.50;45.25;;;;;;;;5013863;28;48202;-69
2021/10/10 03:29:07;;;;;;;;;73.75;56.00;;;;;;;;5014907;28;45433;-69
2021/10/10 03:31:33;;;;;;;;;62.00;47.75;;;;;;;;5014931;28;45374;-71
2021/10/10 03:33:58;;;;;;;;;63.25;47.00;;;;;;;;5014855;28;45505;-71
2021/10/10 03:36:23;;;;;;;;;59.75;45.75;;;;;;;;5013386;28;45518;-71
2021/10/10 03:38:48;;;;;;;;;55.50;46.00;;;;;;;;5014669;28;45435;-70
2021/10/10 03:41:13;;;;;;;;;56.00;44.75;;;;;;;;5015241;28;45341;-71
2021/10/10 03:43:39;;;;;;;;;54.75;44.50;;;;;;;;5015071;28;45386;-70
2021/10/10 03:46:04;;;;;;;;;52.50;41.75;;;;;;;;5014377;28;46347;-69
2021/10/10 03:48:30;;;;;;;;;62.00;45.75;;;;;;;;5014516;28;45433;-71
2021/10/10 03:50:55;;;;;;;;;57.50;46.25;;;;;;;;5014526;28;45266;-71
2021/10/10 03:53:24;;;;;;;;;55.50;44.75;;;;;;;;5014375;28;45331;-70
2021/10/10 03:55:51;;;;;;;;;62.00;47.75;;;;;;;;5014201;28;46207;-71
2021/10/10 03:58:16;;;;;;;;;59.00;45.50;;;;;;;;5014623;28;45457;-70
2021/10/10 04:00:42;;;;;;;;;51.75;43.75;;;;;;;;5013227;28;45394;-71
2021/10/10 04:03:09;;;;;;;;;62.25;48.00;;;;;;;;5017487;28;45617;-71
2021/10/10 04:08:00;;;;;;;;;57.00;44.75;;;;;;;;5017861;28;45508;-70
2021/10/10 04:10:26;;;;;;;;;57.25;44.75;;;;;;;;5017821;28;45412;-71
2021/10/10 04:12:51;;;;;;;;;63.00;47.00;;;;;;;;5017893;28;45605;-70
2021/10/10 04:15:17;;;;;;;;;55.50;43.25;;;;;;;;5018046;28;46176;-70
2021/10/10 04:17:42;;;;;;;;;56.75;45.75;;;;;;;;5017764;28;45165;-71
2021/10/10 04:20:09;;;;;;;;;57.75;46.00;;;;;;;;5016273;28;45373;-70
2021/10/10 04:22:34;;;;;;;;;56.25;46.50;;;;;;;;5017744;28;45348;-70
2021/10/10 04:24:59;;;;;;;;;58.75;45.50;;;;;;;;5017272;28;45486;-71
2021/10/10 04:27:25;;;;;;;;;57.25;46.25;;;;;;;;5017890;28;45463;-70
2021/10/10 04:29:50;;;;;;;;;61.00;46.75;;;;;;;;5016216;28;45378;-70
2021/10/10 04:32:16;;;;;;;;;61.75;46.75;;;;;;;;5017894;28;46732;-71
2021/10/10 04:34:41;;;;;;;;;56.00;44.25;;;;;;;;5017492;28;46817;-69
2021/10/10 04:37:06;;;;;;;;;58.75;45.50;;;;;;;;5017353;28;45299;-70
2021/10/10 04:39:31;;;;;;;;;59.25;45.50;;;;;;;;5017442;28;45335;-70
2021/10/10 04:41:57;;;;;;;;;55.25;45.00;;;;;;;;5016192;28;45312;-72
2021/10/10 04:44:22;;;;;;;;;60.50;45.50;;;;;;;;5017053;28;47410;-70
2021/10/10 04:46:47;;;;;;;;;62.75;47.25;;;;;;;;5017372;28;45401;-70
2021/10/10 04:49:13;;;;;;;;;56.25;42.75;;;;;;;;5017328;28;45282;-71
2021/10/10 04:51:38;;;;;;;;;53.75;43.50;;;;;;;;5017406;28;45367;-70
2021/10/10 04:54:03;;;;;;;;;63.50;48.00;;;;;;;;5016865;28;45497;-71
2021/10/10 04:56:28;;;;;;;;;58.25;45.75;;;;;;;;5017005;28;45403;-69
2021/10/10 04:58:54;;;;;;;;;58.75;45.25;;;;;;;;5017323;28;45320;-70
2021/10/10 05:01:19;;;;;;;;;61.25;46.00;;;;;;;;5017677;28;45497;-69
2021/10/10 05:03:44;;;;;;;;;60.00;46.00;;;;;;;;5016822;28;46550;-70
2021/10/10 05:06:09;;;;;;;;;60.75;48.00;;;;;;;;5016821;28;45286;-71
2021/10/10 05:08:34;;;;;;;;;61.00;46.50;;;;;;;;5016989;28;45314;-70
2021/10/10 05:11:00;;;;;;;;;60.25;48.00;;;;;;;;5017090;28;45623;-70
2021/10/10 05:13:25;;;;;;;;;61.75;48.00;;;;;;;;5014225;28;45748;-70
2021/10/10 05:15:50;;;;;;;;;58.25;46.50;;;;;;;;5017192;28;45222;-70
2021/10/10 05:18:15;;;;;;;;;64.00;47.75;;;;;;;;5017052;28;45383;-70
2021/10/10 05:20:41;;;;;;;;;59.00;45.25;;;;;;;;5017485;28;45558;-70
2021/10/10 05:23:07;;;;;;;;;65.00;49.75;;;;;;;;5015439;28;47479;-69
2021/10/10 05:25:33;;;;;;;;;60.00;47.00;;;;;;;;5016924;28;45229;-69
2021/10/10 05:27:58;;;;;;;;;60.00;47.25;;;;;;;;5017270;28;45304;-69
2021/10/10 05:30:23;;;;;;;;;56.50;46.00;;;;;;;;5017167;28;45324;-70
2021/10/10 05:32:49;;;;;;;;;60.00;46.25;;;;;;;;5017041;28;45622;-71
2021/10/10 05:35:14;;;;;;;;;62.25;48.00;;;;;;;;5016742;28;45367;-70
2021/10/10 05:37:39;;;;;;;;;63.00;47.75;;;;;;;;5016753;28;45316;-70
2021/10/10 05:40:05;;;;;;;;;59.00;46.25;;;;;;;;5016938;28;45561;-69
2021/10/10 05:42:32;;;;;;;;;62.75;49.25;;;;;;;;5016227;28;47901;-69
2021/10/10 05:44:57;;;;;;;;;59.00;48.00;;;;;;;;5016655;28;45451;-70
2021/10/10 05:47:23;;;;;;;;;59.75;47.75;;;;;;;;5016739;28;45331;-70
2021/10/10 05:49:48;;;;;;;;;63.00;48.00;;;;;;;;5016544;28;45317;-69
2021/10/10 05:52:13;;;;;;;;;64.50;50.00;;;;;;;;5016120;28;47287;-70
2021/10/10 05:54:39;;;;;;;;;64.75;48.00;;;;;;;;5016421;28;45574;-70
2021/10/10 05:57:12;;;;;;;;;63.75;48.50;;;;;;;;5016523;28;45332;-70
2021/10/10 05:59:38;;;;;;;;;59.00;46.25;;;;;;;;5016693;28;45398;-71
2021/10/10 06:02:03;;;;;;;;;62.75;48.50;;;;;;;;5016312;28;46523;-70
2021/10/10 06:04:29;;;;;;;;;62.50;46.25;;;;;;;;5016473;28;45325;-70
2021/10/10 06:06:54;;;;;;;;;61.00;48.00;;;;;;;;5016824;28;45392;-70
2021/10/10 06:09:19;;;;;;;;;61.25;48.25;;;;;;;;5015572;28;45487;-71
2021/10/10 06:11:45;;;;;;;;;63.25;46.75;;;;;;;;5016381;28;45423;-70
2021/10/10 06:14:10;;;;;;;;;62.25;50.75;;;;;;;;5016067;28;45305;-71
2021/10/10 06:16:35;;;;;;;;;59.25;46.00;;;;;;;;5014777;28;45278;-70
2021/10/10 06:19:01;;;;;;;;;63.25;48.25;;;;;;;;5016347;28;45329;-73
2021/10/10 06:21:27;;;;;;;;;62.50;47.00;;;;;;;;5014507;28;47290;-70
2021/10/10 06:23:53;;;;;;;;;66.50;48.25;;;;;;;;5015950;28;45330;-71
2021/10/10 06:26:18;;;;;;;;;63.25;49.50;;;;;;;;5015822;28;45383;-69
2021/10/10 06:28:43;;;;;;;;;61.25;47.50;;;;;;;;5016105;28;45259;-70
2021/10/10 06:31:09;;;;;;;;;63.50;47.25;;;;;;;;5014421;28;48350;-71
2021/10/10 06:33:34;;;;;;;;;67.00;50.00;;;;;;;;5014294;28;45352;-71
2021/10/10 06:35:59;;;;;;;;;60.75;49.00;;;;;;;;5014498;28;45379;-71
2021/10/10 06:38:24;;;;;;;;;60.25;44.75;;;;;;;;5016249;28;45440;-71
2021/10/10 06:40:50;;;;;;;;;63.50;48.00;;;;;;;;5014283;28;47910;-71
2021/10/10 06:43:15;;;;;;;;;61.25;48.25;;;;;;;;5014039;28;45491;-70
2021/10/10 06:45:40;;;;;;;;;65.25;50.50;;;;;;;;5015735;28;45352;-69
2021/10/10 06:48:06;;;;;;;;;64.75;49.75;;;;;;;;5015793;28;45303;-69
2021/10/10 06:50:31;;;;;;;;;60.25;49.25;;;;;;;;5015107;28;46307;-71
2021/10/10 06:52:57;;;;;;;;;61.75;48.25;;;;;;;;5015638;28;45333;-69
2021/10/10 06:55:22;;;;;;;;;66.00;49.50;;;;;;;;5015834;28;45293;-71
2021/10/10 06:57:47;;;;;;;;;64.50;48.25;;;;;;;;5015588;28;45620;-71
2021/10/10 07:00:13;;;;;;;;;63.50;48.25;;;;;;;;5015005;28;45372;-70
2021/10/10 07:02:41;;;;;;;;;58.75;47.50;;;;;;;;5015180;28;45486;-71
2021/10/10 07:05:07;;;;;;;;;64.75;50.00;;;;;;;;5014264;28;45368;-70
2021/10/10 07:07:32;;;;;;;;;62.50;48.25;;;;;;;;5015497;28;45533;-71
2021/10/10 07:09:57;;;;;;;;;60.00;47.00;;;;;;;;5015461;28;46525;-70
2021/10/10 07:12:22;;;;;;;;;59.25;46.75;;;;;;;;5015520;28;45212;-70
2021/10/10 07:14:50;;;;;;;;;62.75;50.00;;;;;;;;5015280;28;45261;-70
2021/10/10 07:17:16;;;;;;;;;66.00;48.50;;;;;;;;5015452;28;45629;-71
2021/10/10 07:20:02;;;;;;;;;65.75;49.25;;;;;;;;5013488;28;47072;-69
2021/10/10 07:22:42;;;;;;;;;60.00;47.00;;;;;;;;5015261;28;45471;-69
2021/10/10 07:25:08;;;;;;;;;60.50;47.00;;;;;;;;5013601;28;45289;-70
2021/10/10 07:27:35;;;;;;;;;60.00;46.50;;;;;;;;5014894;28;45565;-70
2021/10/10 07:30:01;;;;;;;;;64.50;48.00;;;;;;;;5014713;28;45385;-70
2021/10/10 07:32:26;;;;;;;;;60.50;46.25;;;;;;;;5015007;28;45333;-71
2021/10/10 07:34:52;;;;;;;;;65.75;48.50;;;;;;;;5014924;28;45336;-70
2021/10/10 07:37:17;;;;;;;;;57.25;45.00;;;;;;;;5016479;28;45649;-71
2021/10/10 07:39:42;;;;;;;;;64.00;49.50;;;;;;;;5018039;28;45311;-71
2021/10/10 07:42:07;;;;;;;;;59.75;45.75;;;;;;;;5018033;28;45475;-70
2021/10/10 07:44:34;;;;;;;;;56.00;45.75;;;;;;;;5018405;28;45302;-70
2021/10/10 07:49:44;;;;;;;;;57.50;46.00;;;;;;;;5017886;28;45325;-70
2021/10/10 07:52:10;;;;;;;;;61.25;46.00;;;;;;;;5017709;28;45723;-72
2021/10/10 07:54:35;;;;;;;;;59.00;46.75;;;;;;;;5018088;28;45301;-70
2021/10/10 07:57:01;;;;;;;;;58.50;43.75;;;;;;;;5018340;28;45470;-70
2021/10/10 07:59:26;;;;;;;;;58.00;47.00;;;;;;;;5017834;28;46036;-70
2021/10/10 08:01:53;;;;;;;;;63.75;48.25;;;;;;;;5017787;28;45356;-70
2021/10/10 08:04:19;;;;;;;;;59.25;46.00;;;;;;;;5016538;28;45440;-71
2021/10/10 08:06:46;;;;;;;;;62.75;46.25;;;;;;;;5018033;28;45479;-71
2021/10/10 08:09:11;;;;;;;;;55.75;42.75;;;;;;;;5017756;28;45977;-70
2021/10/10 08:11:36;;;;;;;;;60.50;45.50;;;;;;;;5017557;28;45479;-69
2021/10/10 08:14:02;;;;;;;;;59.50;46.00;;;;;;;;5017309;28;45295;-69
2021/10/10 08:16:27;;;;;;;;;59.50;46.00;;;;;;;;5018045;28;45475;-69
2021/10/10 08:18:52;;;;;;;;;55.75;45.50;;;;;;;;5017275;28;46967;-70
2021/10/10 08:21:17;;;;;;;;;57.50;46.00;;;;;;;;5017370;28;45452;-70
2021/10/10 08:23:43;;;;;;;;;59.00;46.75;;;;;;;;5017709;28;45347;-71
2021/10/10 08:26:09;;;;;;;;;53.25;41.50;;;;;;;;5017516;28;45466;-71
2021/10/10 08:28:34;;;;;;;;;57.50;44.50;;;;;;;;5017200;28;46280;-71
2021/10/10 08:30:59;;;;;;;;;56.00;42.00;;;;;;;;5017411;28;45522;-69
2021/10/10 08:33:24;;;;;;;;;60.25;45.75;;;;;;;;5017444;28;45332;-69
2021/10/10 08:35:50;;;;;;;;;55.75;44.25;;;;;;;;5017604;28;45249;-71
2021/10/10 08:38:15;;;;;;;;;56.75;43.50;;;;;;;;5017232;28;46741;-70
2021/10/10 08:40:41;;;;;;;;;60.00;47.50;;;;;;;;5017206;28;45220;-70
2021/10/10 08:43:11;;;;;;;;;60.25;46.25;;;;;;;;5017172;28;45316;-70
2021/10/10 08:45:37;;;;;;;;;57.25;44.75;;;;;;;;5015812;28;45527;-70
2021/10/10 08:48:03;;;;;;;;;53.75;44.00;;;;;;;;5016893;28;45339;-70
2021/10/10 08:50:29;;;;;;;;;58.00;45.50;;;;;;;;5017360;28;45348;-70
2021/10/10 08:52:57;;;;;;;;;56.25;44.75;;;;;;;;5015878;28;45448;-71
2021/10/10 08:55:22;;;;;;;;;57.00;45.00;;;;;;;;5017598;28;45579;-72
2021/10/10 08:57:48;;;;;;;;;60.25;44.75;;;;;;;;5016967;28;45442;-71
2021/10/10 09:00:19;;;;;;;;;118.50;104.50;;;;;;;;5016876;28;45318;-70
2021/10/10 09:02:50;;;;;;;;;53.00;42.25;;;;;;;;5016861;28;45295;-70
2021/10/10 09:05:16;;;;;;;;;59.75;47.50;;;;;;;;5017519;28;45280;-70
2021/10/10 09:07:43;;;;;;;;;65.00;49.25;;;;;;;;5017021;28;46595;-71
2021/10/10 09:10:28;;;;;;;;;58.25;46.75;;;;;;;;5015734;28;45458;-70
2021/10/10 09:13:04;;;;;;;;;60.00;46.75;;;;;;;;5015567;28;45411;-70
2021/10/10 09:15:29;;;;;;;;;54.00;42.00;;;;;;;;5015825;28;45455;-70
2021/10/10 09:17:56;;;;;;;;;52.75;40.50;;;;;;;;5016453;28;45957;-70
2021/10/10 09:20:25;;;;;;;;;53.50;42.50;;;;;;;;5015345;28;45737;-70
2021/10/10 09:22:50;;;;;;;;;50.75;41.50;;;;;;;;5016812;28;45418;-71
2021/10/10 09:25:17;;;;;;;;;48.75;41.75;;;;;;;;5016751;28;45338;-71
2021/10/10 09:27:42;;;;;;;;;52.25;43.00;;;;;;;;5015075;28;48118;-71
2021/10/10 09:30:08;;;;;;;;;60.00;47.75;;;;;;;;5015242;28;45479;-70
2021/10/10 09:32:34;;;;;;;;;50.25;40.50;;;;;;;;4999223;28;45399;-71
2021/10/10 09:34:59;;;;;;;;;52.75;42.25;;;;;;;;5015328;28;45629;-71
2021/10/10 09:37:35;;;;;;;;;55.50;42.00;;;;;;;;5014986;28;47071;-72
2021/10/10 09:40:10;;;;;;;;;53.00;40.75;;;;;;;;5017081;28;45373;-72
2021/10/10 09:42:37;;;;;;;;;56.00;43.25;;;;;;;;5016805;28;45445;-72
2021/10/10 09:45:17;;;;;;;;;52.50;42.75;;;;;;;;5016765;28;45402;-70
2021/10/10 09:47:57;;;;;;;;;52.25;42.00;;;;;;;;5016010;28;46504;-69
2021/10/10 09:50:23;;;;;;;;;45.00;36.00;;;;;;;;5016549;28;45490;-71
2021/10/10 09:53:02;;;;;;;;;46.00;39.50;;;;;;;;5016368;28;45249;-69
2021/10/10 09:55:28;;;;;;;;;42.25;37.50;;;;;;;;5016102;28;45441;-69
2021/10/10 09:57:54;;;;;;;;;43.75;35.50;;;;;;;;5014711;28;47244;-71
2021/10/10 10:00:37;;;;;;;;;47.75;37.25;;;;;;;;5015328;28;45385;-72
2021/10/10 10:03:02;;;;;;;;;45.00;36.00;;;;;;;;5016247;28;45497;-71
2021/10/10 10:05:29;;;;;;;;;48.50;39.00;;;;;;;;5015787;28;45311;-71
2021/10/10 10:07:54;;;;;;;;;47.25;37.25;;;;;;;;5013872;28;47848;-70
2021/10/10 10:10:20;;;;;;;;;49.50;38.50;;;;;;;;5015637;28;45498;-71
2021/10/10 10:12:46;;;;;;;;;44.50;37.75;;;;;;;;5015441;28;45332;-71
2021/10/10 10:15:12;;;;;;;;;49.00;39.00;;;;;;;;5015906;28;45327;-71
2021/10/10 10:17:37;;;;;;;;;49.00;37.00;;;;;;;;5015115;28;46262;-71
2021/10/10 10:20:03;;;;;;;;;50.75;37.25;;;;;;;;5015560;28;45233;-71
2021/10/10 10:22:30;;;;;;;;;46.25;38.50;;;;;;;;5015027;28;45220;-70
2021/10/10 10:24:58;;;;;;;;;49.25;37.50;;;;;;;;5015701;28;45604;-71
2021/10/10 10:27:23;;;;;;;;;47.25;36.75;;;;;;;;5015102;28;45426;-71
2021/10/10 10:29:50;;;;;;;;;40.50;35.25;;;;;;;;5015195;28;45266;-68
2021/10/10 10:32:19;;;;;;;;;40.25;34.75;;;;;;;;5015544;28;45321;-70
2021/10/10 10:34:58;;;;;;;;;38.25;34.25;;;;;;;;5014702;28;45544;-71
2021/10/10 10:37:43;;;;;;;;;41.25;34.50;;;;;;;;5015430;28;47121;-73
2021/10/10 10:40:15;;;;;;;;;43.25;33.75;;;;;;;;5015432;28;45425;-70
2021/10/10 10:42:41;;;;;;;;;40.50;34.50;;;;;;;;5015091;28;45339;-71
2021/10/10 10:45:22;;;;;;;;;35.50;32.75;;;;;;;;5014777;28;45572;-73
2021/10/10 10:47:48;;;;;;;;;58.00;43.50;;;;;;;;5015007;28;45347;-71
2021/10/10 10:50:14;;;;;;;;;36.25;32.75;;;;;;;;5013770;28;45278;-72
2021/10/10 10:52:40;;;;;;;;;38.50;32.75;;;;;;;;5013585;28;45360;-71
2021/10/10 10:55:05;;;;;;;;;38.00;31.50;;;;;;;;5014501;28;45546;-72
2021/10/10 10:57:30;;;;;;;;;36.00;32.25;;;;;;;;5015463;28;45709;-71
2021/10/10 11:00:14;;;;;;;;;37.25;33.00;;;;;;;;5015813;28;45308;-71
2021/10/10 11:02:53;;;;;;;;;40.75;33.50;;;;;;;;5015883;28;45351;-70
2021/10/10 11:05:37;;;;;;;;;41.75;33.25;;;;;;;;5015410;28;45477;-73
2021/10/10 11:08:17;;;;;;;;;35.75;32.25;;;;;;;;5014897;28;45367;-71
2021/10/10 11:11:01;;;;;;;;;40.75;33.50;;;;;;;;5013453;28;45364;-71
2021/10/10 11:13:28;;;;;;;;;40.00;33.50;;;;;;;;5018514;28;45275;-71
2021/10/10 11:15:57;;;;;;;;;39.75;33.75;;;;;;;;5018839;28;45214;-69
2021/10/10 11:18:25;;;;;;;;;44.25;37.50;;;;;;;;5016787;28;47361;-71
2021/10/10 11:20:59;;;;;;;;;40.75;34.00;;;;;;;;5018293;28;45702;-72
2021/10/10 11:23:24;;;;;;;;;33.25;30.25;;;;;;;;5016800;28;45340;-71
2021/10/10 11:25:50;;;;;;;;;37.75;31.50;;;;;;;;5018212;28;45332;-69
2021/10/10 11:28:16;;;;;;;;;33.75;30.50;;;;;;;;5018221;28;46261;-71
2021/10/10 11:30:41;;;;;;;;;40.00;32.75;;;;;;;;5018045;28;45395;-69
2021/10/10 11:33:07;;;;;;;;;34.75;29.75;;;;;;;;5018492;28;45273;-70
2021/10/10 11:35:34;;;;;;;;;35.75;31.00;;;;;;;;5018137;28;45175;-71
2021/10/10 11:38:00;;;;;;;;;34.00;29.00;;;;;;;;5017633;28;47069;-71
2021/10/10 11:40:25;;;;;;;;;34.00;30.50;;;;;;;;5017390;28;45992;-71
2021/10/10 11:42:54;;;;;;;;;36.50;32.25;;;;;;;;5017500;28;45394;-72
2021/10/10 11:45:23;;;;;;;;;33.00;29.00;;;;;;;;5017662;28;45561;-71
2021/10/10 11:47:51;;;;;;;;;35.25;30.75;;;;;;;;5017162;28;45604;-71
2021/10/10 11:50:16;;;;;;;;;28.75;27.75;;;;;;;;5017289;28;45457;-72
2021/10/10 11:52:51;;;;;;;;;29.00;28.50;;;;;;;;5017825;28;45627;-71
2021/10/10 11:57:55;;;;;;;;;27.75;24.50;;;;;;;;5017099;28;45383;-70
2021/10/10 12:00:22;;;;;;;;;29.75;26.75;;;;;;;;5017269;28;45281;-71
2021/10/10 12:02:48;;;;;;;;;47.50;37.25;;;;;;;;5017428;28;45245;-71
2021/10/10 12:05:14;;;;;;;;;30.25;24.00;;;;;;;;5016117;28;45226;-72
2021/10/10 12:07:41;;;;;;;;;36.75;31.25;;;;;;;;5017010;28;46831;-71
2021/10/10 12:10:07;;;;;;;;;38.50;32.50;;;;;;;;5017050;28;45519;-70
2021/10/10 12:12:33;;;;;;;;;36.75;31.75;;;;;;;;5017109;28;45267;-70
2021/10/10 12:14:59;;;;;;;;;30.75;29.25;;;;;;;;5015690;28;45615;-70
2021/10/10 12:17:43;;;;;;;;;29.00;26.50;;;;;;;;5017275;28;45689;-71
2021/10/10 12:20:17;;;;;;;;;27.50;26.00;;;;;;;;5015748;28;45456;-70
2021/10/10 12:22:46;;;;;;;;;32.75;28.25;;;;;;;;5017076;28;45354;-70
2021/10/10 12:25:25;;;;;;;;;32.25;28.50;;;;;;;;5017479;28;45486;-71
2021/10/10 12:27:56;;;;;;;;;31.25;26.00;;;;;;;;5016939;28;45575;-72
2021/10/10 12:30:30;;;;;;;;;29.50;26.25;;;;;;;;5016550;28;45351;-70
2021/10/10 12:32:56;;;;;;;;;30.00;29.25;;;;;;;;5016752;28;45372;-70
2021/10/10 12:35:21;;;;;;;;;28.00;25.25;;;;;;;;5016966;28;45482;-70
2021/10/10 12:37:57;;;;;;;;;35.50;30.00;;;;;;;;5016627;28;46397;-70
2021/10/10 12:40:23;;;;;;;;;38.00;30.25;;;;;;;;5014889;28;45316;-71
2021/10/10 12:42:50;;;;;;;;;30.25;29.00;;;;;;;;5016572;28;45242;-71
2021/10/10 12:45:21;;;;;;;;;33.00;27.50;;;;;;;;5017263;28;45424;-72
2021/10/10 12:47:55;;;;;;;;;37.00;27.25;;;;;;;;5016868;28;46504;-71
2021/10/10 12:50:21;;;;;;;;;32.75;29.00;;;;;;;;5032306;28;45250;-71
2021/10/10 12:52:46;;;;;;;;;35.25;30.75;;;;;;;;5016754;28;45238;-71
2021/10/10 12:55:26;;;;;;;;;31.75;28.00;;;;;;;;5017264;28;45564;-70
2021/10/10 12:57:55;;;;;;;;;31.75;28.50;;;;;;;;5016757;28;46555;-70
2021/10/10 13:00:21;;;;;;;;;26.25;22.00;;;;;;;;5016808;28;45327;-71
2021/10/10 13:02:48;;;;;;;;;36.50;32.25;;;;;;;;5016674;28;45578;-70
2021/10/10 13:05:14;;;;;;;;;35.50;32.25;;;;;;;;5017106;28;45462;-71
2021/10/10 13:07:39;;;;;;;;;39.75;33.00;;;;;;;;5016343;28;45324;-72
2021/10/10 13:10:05;;;;;;;;;32.25;30.50;;;;;;;;5016913;28;45415;-69
2021/10/10 13:12:30;;;;;;;;;37.00;32.25;;;;;;;;5015130;28;45188;-70
2021/10/10 13:14:57;;;;;;;;;33.75;29.25;;;;;;;;5015445;28;45576;-70
2021/10/10 13:17:22;;;;;;;;;40.75;33.25;;;;;;;;5016287;28;45246;-71
2021/10/10 13:19:47;;;;;;;;;38.25;32.75;;;;;;;;5016525;28;45468;-69
2021/10/10 13:22:12;;;;;;;;;41.50;34.25;;;;;;;;5016939;28;45382;-70
2021/10/10 13:24:38;;;;;;;;;36.25;33.75;;;;;;;;5016632;28;45615;-69
2021/10/10 13:27:03;;;;;;;;;39.25;33.25;;;;;;;;5016571;28;46340;-71
2021/10/10 13:29:28;;;;;;;;;39.25;33.50;;;;;;;;5016551;28;45408;-70
2021/10/10 13:31:53;;;;;;;;;37.00;33.25;;;;;;;;5015261;28;45358;-72
2021/10/10 13:34:19;;;;;;;;;32.25;30.50;;;;;;;;5015975;28;45383;-70
2021/10/10 13:36:48;;;;;;;;;40.25;35.00;;;;;;;;5016550;28;45611;-70
2021/10/10 13:39:13;;;;;;;;;37.75;34.50;;;;;;;;5014936;28;46171;-70
2021/10/10 13:41:38;;;;;;;;;42.25;33.00;;;;;;;;5014600;28;45264;-71
2021/10/10 13:44:04;;;;;;;;;41.25;33.75;;;;;;;;5016419;28;45420;-74
2021/10/10 13:46:30;;;;;;;;;39.00;32.25;;;;;;;;5016211;28;45473;-73
2021/10/10 13:48:55;;;;;;;;;38.75;32.50;;;;;;;;5016545;28;45217;-72
2021/10/10 13:51:20;;;;;;;;;33.25;31.00;;;;;;;;5016533;28;45159;-70
2021/10/10 13:53:45;;;;;;;;;29.00;26.25;;;;;;;;5016432;28;45522;-72
2021/10/10 13:56:11;;;;;;;;;37.00;30.75;;;;;;;;5015746;28;45419;-72
2021/10/10 13:58:36;;;;;;;;;32.25;28.50;;;;;;;;5016025;28;45244;-71
2021/10/10 14:01:02;;;;;;;;;40.50;33.25;;;;;;;;5015917;28;45240;-73
2021/10/10 14:03:29;;;;;;;;;33.75;31.25;;;;;;;;5014701;28;45321;-72
2021/10/10 14:05:55;;;;;;;;;33.00;28.75;;;;;;;;5014253;28;47482;-71
2021/10/10 14:08:21;;;;;;;;;35.50;31.25;;;;;;;;5015427;28;45520;-71
2021/10/10 14:10:47;;;;;;;;;35.00;27.75;;;;;;;;5015804;28;45324;-72
2021/10/10 14:13:14;;;;;;;;;33.00;29.50;;;;;;;;5014448;28;45569;-71
2021/10/10 14:15:40;;;;;;;;;31.25;27.75;;;;;;;;5014242;28;47114;-71
2021/10/10 14:18:05;;;;;;;;;34.75;31.00;;;;;;;;5015375;28;45250;-72
2021/10/10 14:20:30;;;;;;;;;44.75;32.75;;;;;;;;5015597;28;45254;-71